Time;durP1;ratioP1;P1;durP2;ratioP2;P2;SDS_P1;SDS_P2;PMS_P1;PMS_P2;Temp;Humidity;BMP_temperature;BMP_pressure;BME280_temperature;BME280_humidity;BME280_pressure;Samples;Min_cycle;Max_cycle;Signal;HPM_P1;HPM_P2
2023/09/13 00:02:19;;;;;;;;;;;24.90;54.40;;;;;;5054461;28;20292;-60
2023/09/13 00:04:46;;;;;;;;;;;25.00;54.40;;;;;;5053644;28;19931;-59
2023/09/13 00:07:14;;;;;;;;;;;25.00;54.40;;;;;;5053967;28;20015;-60
2023/09/13 00:09:41;;;;;;;;;;;25.00;54.30;;;;;;5054411;28;19925;-59
2023/09/13 00:12:08;;;;;;;;;;;25.00;54.30;;;;;;5053241;28;19925;-59
2023/09/13 00:14:36;;;;;;;;;;;25.00;54.30;;;;;;5053666;28;19978;-60
2023/09/13 00:17:03;;;;;;;;;;;25.00;54.20;;;;;;5054343;28;19931;-60
2023/09/13 00:19:30;;;;;;;;;;;25.00;54.30;;;;;;5054366;28;19935;-60
2023/09/13 00:21:57;;;;;;;;;;;25.00;54.30;;;;;;5054067;28;19979;-60
2023/09/13 00:24:24;;;;;;;;;;;24.90;54.30;;;;;;5052142;28;19932;-59
2023/09/13 00:26:51;;;;;;;;;;;24.90;54.40;;;;;;5053624;28;19976;-60
2023/09/13 00:29:18;;;;;;;;;;;24.90;54.40;;;;;;5053609;28;19929;-59
2023/09/13 00:31:45;;;;;;;;;;;24.90;54.30;;;;;;5054124;28;20069;-60
2023/09/13 00:34:14;;;;;;;;;;;25.00;54.30;;;;;;5054347;28;19925;-60
2023/09/13 00:36:41;;;;;;;;;;;24.90;54.30;;;;;;5053885;28;19925;-59
2023/09/13 00:39:08;;;;;;;;;;;24.90;54.30;;;;;;5054412;28;19925;-60
2023/09/13 00:41:34;;;;;;;;;;;24.90;54.30;;;;;;5053919;28;19925;-59
2023/09/13 00:44:01;;;;;;;;;;;24.90;54.40;;;;;;5053410;28;20404;-60
2023/09/13 00:46:29;;;;;;;;;;;24.90;54.40;;;;;;5052938;28;20373;-60
2023/09/13 00:48:57;;;;;;;;;;;24.90;54.40;;;;;;5053350;28;19925;-60
2023/09/13 00:51:24;;;;;;;;;;;24.90;54.30;;;;;;5052003;28;19932;-59
2023/09/13 00:53:51;;;;;;;;;;;24.90;54.40;;;;;;5051151;28;19978;-60
2023/09/13 00:56:18;;;;;;;;;;;24.90;54.40;;;;;;5052870;28;19928;-60
2023/09/13 00:58:47;;;;;;;;;;;24.90;54.40;;;;;;5052911;28;20382;-60
2023/09/13 01:01:15;;;;;;;;;;;24.90;54.40;;;;;;5052333;28;19925;-60
2023/09/13 01:03:42;;;;;;;;;;;24.90;54.40;;;;;;5053210;28;20015;-60
2023/09/13 01:06:11;;;;;;;;;;;24.90;54.40;;;;;;5051213;28;19970;-60
2023/09/13 01:08:42;;;;;;;;;;;24.90;54.40;;;;;;5053356;28;20300;-60
2023/09/13 01:11:10;;;;;;;;;;;24.90;54.40;;;;;;5053374;28;19975;-60
2023/09/13 01:13:38;;;;;;;;;;;24.90;54.40;;;;;;5052803;28;20440;-60
2023/09/13 01:16:14;;;;;;;;;;;24.90;54.40;;;;;;5053650;28;19978;-60
2023/09/13 01:18:45;;;;;;;;;;;24.90;54.40;;;;;;5052551;28;19975;-60
2023/09/13 01:21:32;;;;;;;;;;;24.90;54.40;;;;;;5052963;28;20318;-60
2023/09/13 01:24:09;;;;;;;;;;;24.90;54.30;;;;;;5052836;28;19924;-62
2023/09/13 01:26:56;;;;;;;;;;;24.90;54.30;;;;;;5052109;28;20332;-60
2023/09/13 01:29:25;;;;;;;;;;;24.90;54.30;;;;;;5052295;28;19963;-60
2023/09/13 01:31:52;;;;;;;;;;;24.90;54.20;;;;;;5052679;28;20062;-59
2023/09/13 01:34:19;;;;;;;;;;;24.90;54.20;;;;;;5050361;28;19924;-60
2023/09/13 01:36:47;;;;;;;;;;;24.90;54.20;;;;;;5052368;28;19925;-60
2023/09/13 01:39:14;;;;;;;;;;;24.90;54.20;;;;;;5052741;28;19931;-60
2023/09/13 01:41:56;;;;;;;;;;;24.90;54.10;;;;;;5066889;28;20147;-59
2023/09/13 01:44:23;;;;;;;;;;;24.90;54.10;;;;;;5052622;28;19975;-60
2023/09/13 01:46:50;;;;;;;;;;;24.90;54.10;;;;;;5051326;28;19964;-60
2023/09/13 01:49:20;;;;;;;;;;;24.90;54.10;;;;;;5052562;28;19931;-59
2023/09/13 01:51:48;;;;;;;;;;;24.90;54.20;;;;;;5052295;28;19971;-60
2023/09/13 01:54:19;;;;;;;;;;;24.90;54.20;;;;;;5052741;28;19986;-60
2023/09/13 01:56:46;;;;;;;;;;;24.90;54.30;;;;;;5052880;28;20016;-60
2023/09/13 01:59:12;;;;;;;;;;;24.90;54.20;;;;;;5052648;28;19951;-60
2023/09/13 02:01:39;;;;;;;;;;;24.90;54.20;;;;;;5052044;28;19925;-60
2023/09/13 02:04:07;;;;;;;;;;;24.90;54.20;;;;;;5052622;28;19932;-60
2023/09/13 02:06:34;;;;;;;;;;;24.90;54.20;;;;;;5055974;28;20023;-59
2023/09/13 02:09:01;;;;;;;;;;;24.80;54.20;;;;;;5056738;28;19925;-60
2023/09/13 02:11:28;;;;;;;;;;;24.80;54.20;;;;;;5056615;28;19948;-60
2023/09/13 02:13:55;;;;;;;;;;;24.90;54.30;;;;;;5055904;28;19925;-60
2023/09/13 02:16:22;;;;;;;;;;;24.90;54.30;;;;;;5056125;28;20143;-60
2023/09/13 02:18:50;;;;;;;;;;;24.80;54.30;;;;;;5056033;28;20292;-60
2023/09/13 02:21:17;;;;;;;;;;;24.90;54.30;;;;;;5057113;28;19940;-60
2023/09/13 02:23:45;;;;;;;;;;;24.80;54.20;;;;;;5056366;28;20378;-60
2023/09/13 02:26:19;;;;;;;;;;;24.80;54.20;;;;;;5055727;28;20429;-60
2023/09/13 02:28:46;;;;;;;;;;;24.80;54.20;;;;;;5055799;28;19925;-60
2023/09/13 02:31:20;;;;;;;;;;;24.80;54.30;;;;;;5056456;28;19968;-60
2023/09/13 02:33:47;;;;;;;;;;;24.80;54.20;;;;;;5055955;28;19925;-60
2023/09/13 02:36:14;;;;;;;;;;;24.80;54.20;;;;;;5070997;28;19925;-60
2023/09/13 02:38:42;;;;;;;;;;;24.80;54.20;;;;;;5056078;28;19925;-60
2023/09/13 02:41:09;;;;;;;;;;;24.80;54.20;;;;;;5056000;28;19956;-60
2023/09/13 02:43:36;;;;;;;;;;;24.80;54.30;;;;;;5055276;28;19931;-59
2023/09/13 02:46:03;;;;;;;;;;;24.80;54.20;;;;;;5055258;28;20608;-60
2023/09/13 02:48:30;;;;;;;;;;;24.80;54.10;;;;;;5055811;28;19971;-60
2023/09/13 02:50:57;;;;;;;;;;;24.80;54.10;;;;;;5055325;28;19925;-60
2023/09/13 02:53:24;;;;;;;;;;;24.80;54.00;;;;;;5054937;28;19931;-60
2023/09/13 02:55:51;;;;;;;;;;;24.80;54.00;;;;;;5054751;28;20386;-61
2023/09/13 02:58:18;;;;;;;;;;;24.80;54.00;;;;;;5055272;28;20289;-60
2023/09/13 03:00:46;;;;;;;;;;;24.90;54.00;;;;;;5055592;28;20344;-59
2023/09/13 03:03:14;;;;;;;;;;;24.80;53.90;;;;;;5054973;28;19924;-60
2023/09/13 03:05:41;;;;;;;;;;;24.90;54.00;;;;;;5070305;28;19979;-59
2023/09/13 03:08:08;;;;;;;;;;;24.90;53.90;;;;;;5054761;28;19967;-59
2023/09/13 03:10:37;;;;;;;;;;;24.90;54.00;;;;;;5055402;28;19974;-60
2023/09/13 03:13:04;;;;;;;;;;;24.80;53.90;;;;;;5070957;28;19925;-59
2023/09/13 03:15:32;;;;;;;;;;;24.90;53.90;;;;;;5055333;28;19956;-60
2023/09/13 03:17:59;;;;;;;;;;;24.80;53.90;;;;;;5054486;28;19928;-60
2023/09/13 03:20:26;;;;;;;;;;;24.90;54.00;;;;;;5055362;28;19925;-60
2023/09/13 03:22:54;;;;;;;;;;;24.80;54.00;;;;;;5055478;28;19925;-59
2023/09/13 03:25:21;;;;;;;;;;;24.80;54.00;;;;;;5055780;28;19978;-59
2023/09/13 03:27:48;;;;;;;;;;;24.80;54.00;;;;;;5055387;28;19932;-59
2023/09/13 03:30:15;;;;;;;;;;;24.80;54.00;;;;;;5055475;28;20023;-60
2023/09/13 03:32:42;;;;;;;;;;;24.80;54.00;;;;;;5054956;28;19929;-60
2023/09/13 03:35:10;;;;;;;;;;;24.80;54.00;;;;;;5054845;28;19925;-60
2023/09/13 03:37:37;;;;;;;;;;;24.80;54.00;;;;;;5053956;28;19925;-60
2023/09/13 03:40:05;;;;;;;;;;;24.80;54.00;;;;;;5055024;28;20310;-59
2023/09/13 03:42:32;;;;;;;;;;;24.80;54.10;;;;;;5055032;28;20357;-60
2023/09/13 03:44:59;;;;;;;;;;;24.80;54.10;;;;;;5054940;28;19975;-60
2023/09/13 03:47:26;;;;;;;;;;;24.80;54.00;;;;;;5055434;28;20010;-60
2023/09/13 03:49:53;;;;;;;;;;;24.80;54.00;;;;;;5054928;28;19925;-59
2023/09/13 03:52:21;;;;;;;;;;;24.80;54.00;;;;;;5054198;28;19987;-59
2023/09/13 03:54:48;;;;;;;;;;;24.80;54.00;;;;;;5054690;28;19925;-60
2023/09/13 03:57:16;;;;;;;;;;;24.70;54.00;;;;;;5054832;28;19931;-60
2023/09/13 03:59:44;;;;;;;;;;;24.80;54.10;;;;;;5054956;28;19936;-59
2023/09/13 04:02:11;;;;;;;;;;;24.80;54.10;;;;;;5054490;28;20340;-60
2023/09/13 04:04:38;;;;;;;;;;;24.80;54.10;;;;;;5054100;28;19933;-60
2023/09/13 04:07:05;;;;;;;;;;;24.80;54.00;;;;;;5054643;28;19971;-60
2023/09/13 04:09:32;;;;;;;;;;;24.70;54.00;;;;;;5054064;28;19933;-60
2023/09/13 04:11:59;;;;;;;;;;;24.70;54.10;;;;;;5053956;28;19971;-60
2023/09/13 04:14:26;;;;;;;;;;;24.70;54.00;;;;;;5053588;28;19947;-60
2023/09/13 04:16:53;;;;;;;;;;;24.70;54.00;;;;;;5053643;28;19968;-60
2023/09/13 04:19:20;;;;;;;;;;;24.80;54.00;;;;;;5052948;28;19971;-60
2023/09/13 04:21:47;;;;;;;;;;;24.80;53.90;;;;;;5053786;28;19964;-59
2023/09/13 04:24:14;;;;;;;;;;;24.80;53.90;;;;;;5052264;28;19924;-60
2023/09/13 04:26:41;;;;;;;;;;;24.80;53.80;;;;;;5053521;28;20026;-60
2023/09/13 04:29:09;;;;;;;;;;;24.80;53.80;;;;;;5053698;28;20389;-60
2023/09/13 04:31:36;;;;;;;;;;;24.80;53.80;;;;;;5068321;28;19972;-60
2023/09/13 04:34:03;;;;;;;;;;;24.80;53.70;;;;;;5053896;28;20293;-60
2023/09/13 04:36:30;;;;;;;;;;;24.80;53.70;;;;;;5053071;28;19935;-62
2023/09/13 04:38:57;;;;;;;;;;;24.70;53.80;;;;;;5052518;28;19926;-59
2023/09/13 04:41:24;;;;;;;;;;;24.70;53.90;;;;;;5071426;28;20450;-59
2023/09/13 04:43:51;;;;;;;;;;;24.60;54.00;;;;;;5055323;28;19971;-59
2023/09/13 04:46:18;;;;;;;;;;;24.40;54.20;;;;;;5052842;28;19979;-59
2023/09/13 04:48:45;;;;;;;;;;;24.20;54.60;;;;;;5052286;28;19924;-59
2023/09/13 04:51:12;;;;;;;;;;;23.90;54.40;;;;;;5052877;28;19979;-63
2023/09/13 04:53:39;;;;;;;;;;;23.60;53.10;;;;;;5053009;28;20373;-59
2023/09/13 04:56:06;;;;;;;;;;;23.40;52.10;;;;;;5053065;28;20365;-59
2023/09/13 04:58:33;;;;;;;;;;;23.10;51.00;;;;;;5052127;28;19933;-62
2023/09/13 05:01:04;;;;;;;;;;;22.80;50.60;;;;;;5048298;28;19924;-60
2023/09/13 05:03:31;;;;;;;;;;;22.50;51.00;;;;;;5053071;28;20380;-61
2023/09/13 05:05:59;;;;;;;;;;;22.20;51.70;;;;;;5052129;28;20023;-60
2023/09/13 05:08:26;;;;;;;;;;;21.90;51.50;;;;;;5051260;28;19964;-60
2023/09/13 05:10:55;;;;;;;;;;;21.60;51.10;;;;;;5050257;28;20012;-61
2023/09/13 05:13:22;;;;;;;;;;;21.30;51.10;;;;;;5045481;28;19929;-59
2023/09/13 05:15:48;;;;;;;;;;;21.00;51.90;;;;;;5045037;28;20377;-58
2023/09/13 05:18:16;;;;;;;;;;;20.80;52.90;;;;;;5047603;28;20388;-58
2023/09/13 05:20:43;;;;;;;;;;;20.60;53.50;;;;;;5051818;28;19935;-59
2023/09/13 05:23:10;;;;;;;;;;;20.50;53.30;;;;;;5052376;28;19976;-60
2023/09/13 05:25:48;;;;;;;;;;;20.30;53.90;;;;;;5050770;28;19971;-59
2023/09/13 05:28:16;;;;;;;;;;;20.10;54.00;;;;;;5052129;28;19932;-58
2023/09/13 05:30:46;;;;;;;;;;;20.00;51.80;;;;;;5048443;28;19933;-59
2023/09/13 05:33:14;;;;;;;;;;;19.90;53.50;;;;;;5045231;28;19929;-61
2023/09/13 05:35:41;;;;;;;;;;;19.80;54.80;;;;;;5045619;28;19978;-61
2023/09/13 05:38:08;;;;;;;;;;;19.70;53.60;;;;;;5039558;28;19960;-60
2023/09/13 05:40:35;;;;;;;;;;;19.60;51.70;;;;;;5040771;28;19933;-60
2023/09/13 05:43:03;;;;;;;;;;;19.50;53.90;;;;;;5045347;28;19924;-59
2023/09/13 05:45:30;;;;;;;;;;;19.50;54.00;;;;;;5040306;28;19956;-59
2023/09/13 05:47:59;;;;;;;;;;;19.50;53.20;;;;;;5042099;28;19932;-59
2023/09/13 05:50:26;;;;;;;;;;;19.40;53.20;;;;;;5044168;28;19925;-59
2023/09/13 05:52:54;;;;;;;;;;;19.40;54.60;;;;;;5040471;28;20050;-60
2023/09/13 05:55:21;;;;;;;;;;;19.40;53.80;;;;;;5038401;28;19933;-60
2023/09/13 05:57:50;;;;;;;;;;;19.40;53.60;;;;;;5041871;28;19967;-62
2023/09/13 06:00:18;;;;;;;;;;;19.30;53.40;;;;;;5052184;28;19936;-60
2023/09/13 06:02:45;;;;;;;;;;;19.30;54.60;;;;;;5040063;28;19932;-63
2023/09/13 06:05:13;;;;;;;;;;;19.30;53.40;;;;;;5039793;28;20329;-63
2023/09/13 06:07:40;;;;;;;;;;;19.30;54.10;;;;;;5031071;28;20016;-61
2023/09/13 06:10:08;;;;;;;;;;;19.30;55.30;;;;;;5035272;28;20015;-62
2023/09/13 06:12:35;;;;;;;;;;;19.40;54.40;;;;;;5038062;28;19960;-65
2023/09/13 06:15:02;;;;;;;;;;;19.40;53.20;;;;;;5042223;28;20234;-61
2023/09/13 06:17:29;;;;;;;;;;;19.40;54.80;;;;;;5042564;28;19932;-61
2023/09/13 06:19:57;;;;;;;;;;;19.40;54.00;;;;;;5038683;28;20308;-61
2023/09/13 06:22:24;;;;;;;;;;;19.30;54.00;;;;;;5038554;28;20513;-61
2023/09/13 06:24:51;;;;;;;;;;;19.40;55.00;;;;;;5038496;28;20382;-58
2023/09/13 06:27:18;;;;;;;;;;;19.40;54.80;;;;;;5040746;28;20305;-58
2023/09/13 06:29:45;;;;;;;;;;;19.40;55.50;;;;;;5044310;28;19986;-59
2023/09/13 06:32:12;;;;;;;;;;;19.30;55.60;;;;;;5047137;28;19925;-59
2023/09/13 06:34:59;;;;;;;;;;;19.30;54.50;;;;;;5046960;28;19959;-59
2023/09/13 06:37:26;;;;;;;;;;;19.30;54.90;;;;;;5045605;28;19991;-59
2023/09/13 06:39:54;;;;;;;;;;;19.30;55.20;;;;;;5051817;28;19925;-59
2023/09/13 06:42:22;;;;;;;;;;;19.30;55.70;;;;;;5046792;28;20440;-59
2023/09/13 06:44:54;;;;;;;;;;;19.30;55.00;;;;;;5045601;28;19939;-59
2023/09/13 06:47:41;;;;;;;;;;;19.30;54.90;;;;;;5041640;28;20385;-58
2023/09/13 06:50:09;;;;;;;;;;;19.30;56.30;;;;;;5048839;28;19925;-58
2023/09/13 06:52:39;;;;;;;;;;;19.20;56.10;;;;;;5047473;28;19936;-59
2023/09/13 06:55:26;;;;;;;;;;;19.30;56.70;;;;;;5044323;28;20401;-59
2023/09/13 06:57:54;;;;;;;;;;;19.20;57.30;;;;;;5046594;28;19979;-59
2023/09/13 07:00:22;;;;;;;;;;;19.20;56.80;;;;;;5043307;28;19925;-59
2023/09/13 07:03:06;;;;;;;;;;;19.20;58.00;;;;;;5051567;28;20047;-59
2023/09/13 07:05:37;;;;;;;;;;;19.20;57.60;;;;;;5047009;28;19932;-59
2023/09/13 07:08:04;;;;;;;;;;;19.10;58.80;;;;;;5046747;28;20014;-59
2023/09/13 07:10:31;;;;;;;;;;;19.10;59.30;;;;;;5051496;28;19925;-59
2023/09/13 07:12:58;;;;;;;;;;;19.10;59.40;;;;;;5051801;28;19951;-59
2023/09/13 07:15:25;;;;;;;;;;;19.10;59.40;;;;;;5041268;28;19956;-59
2023/09/13 07:17:53;;;;;;;;;;;19.10;60.00;;;;;;5043119;28;20023;-59
2023/09/13 07:20:21;;;;;;;;;;;19.00;60.10;;;;;;5047394;28;19925;-59
2023/09/13 07:22:48;;;;;;;;;;;19.00;60.20;;;;;;5045272;28;19925;-59
2023/09/13 07:25:15;;;;;;;;;;;19.00;60.90;;;;;;5051432;28;20381;-59
2023/09/13 07:27:42;;;;;;;;;;;19.00;61.30;;;;;;5047337;28;20262;-59
2023/09/13 07:30:10;;;;;;;;;;;19.00;61.20;;;;;;5043236;28;19960;-59
2023/09/13 07:32:37;;;;;;;;;;;19.00;61.40;;;;;;5044967;28;19928;-59
2023/09/13 07:35:04;;;;;;;;;;;19.00;60.70;;;;;;5044870;28;21452;-59
2023/09/13 07:37:33;;;;;;;;;;;19.10;60.70;;;;;;5045206;28;19982;-59
2023/09/13 07:40:00;;;;;;;;;;;19.10;60.00;;;;;;5047777;28;19940;-59
2023/09/13 07:42:27;;;;;;;;;;;19.20;60.90;;;;;;5049602;28;20079;-59
2023/09/13 07:44:54;;;;;;;;;;;19.30;60.70;;;;;;5046123;28;20341;-59
2023/09/13 07:47:22;;;;;;;;;;;19.30;59.90;;;;;;5047235;28;19933;-59
2023/09/13 07:49:49;;;;;;;;;;;19.40;59.80;;;;;;5051197;28;20488;-59
2023/09/13 07:52:16;;;;;;;;;;;19.40;59.30;;;;;;5046088;28;19961;-59
2023/09/13 07:54:44;;;;;;;;;;;19.50;60.30;;;;;;5045706;28;19943;-59
2023/09/13 07:57:11;;;;;;;;;;;19.50;59.60;;;;;;5041206;28;19931;-59
2023/09/13 07:59:38;;;;;;;;;;;19.50;60.40;;;;;;5048512;28;20288;-59
2023/09/13 08:02:05;;;;;;;;;;;19.50;59.50;;;;;;5047676;28;19932;-59
2023/09/13 08:04:32;;;;;;;;;;;19.60;60.30;;;;;;5048024;28;20295;-58
2023/09/13 08:06:59;;;;;;;;;;;19.70;60.40;;;;;;5043975;28;20024;-59
2023/09/13 08:09:26;;;;;;;;;;;19.70;60.40;;;;;;5045425;28;19931;-59
2023/09/13 08:11:54;;;;;;;;;;;19.70;60.70;;;;;;5043624;28;20396;-59
2023/09/13 08:14:21;;;;;;;;;;;19.70;61.10;;;;;;5046507;28;19968;-59
2023/09/13 08:16:48;;;;;;;;;;;19.80;59.60;;;;;;5040867;28;20023;-58
2023/09/13 08:19:15;;;;;;;;;;;19.80;60.50;;;;;;5042960;28;19935;-59
2023/09/13 08:21:42;;;;;;;;;;;19.90;59.80;;;;;;5051620;28;20008;-60
2023/09/13 08:24:08;;;;;;;;;;;19.90;59.80;;;;;;5044481;28;20024;-59
2023/09/13 08:26:35;;;;;;;;;;;20.00;60.70;;;;;;5049022;28;19925;-59
2023/09/13 08:29:03;;;;;;;;;;;20.00;60.40;;;;;;5045440;28;20055;-59
2023/09/13 08:31:30;;;;;;;;;;;20.00;61.20;;;;;;5049316;28;19929;-58
2023/09/13 08:33:57;;;;;;;;;;;20.00;60.90;;;;;;5050491;28;19947;-59
2023/09/13 08:36:24;;;;;;;;;;;20.00;60.30;;;;;;5046620;28;20381;-59
2023/09/13 08:38:51;;;;;;;;;;;20.10;60.20;;;;;;5048394;28;19932;-59
2023/09/13 08:41:18;;;;;;;;;;;20.10;60.30;;;;;;5049270;28;19932;-59
2023/09/13 08:43:45;;;;;;;;;;;20.10;60.40;;;;;;5047489;28;20055;-59
2023/09/13 08:46:13;;;;;;;;;;;20.20;60.80;;;;;;5051731;28;19929;-59
2023/09/13 08:48:41;;;;;;;;;;;20.20;61.30;;;;;;5046888;28;20341;-58
2023/09/13 08:51:09;;;;;;;;;;;20.20;60.80;;;;;;5041077;28;20251;-59
2023/09/13 08:53:37;;;;;;;;;;;20.30;60.20;;;;;;5043964;28;19967;-59
2023/09/13 08:56:06;;;;;;;;;;;20.30;60.00;;;;;;5040776;28;20027;-59
2023/09/13 08:58:33;;;;;;;;;;;20.30;60.30;;;;;;5042803;28;20385;-59
2023/09/13 09:01:01;;;;;;;;;;;20.30;60.70;;;;;;5040978;28;19925;-59
2023/09/13 09:03:28;;;;;;;;;;;20.40;60.10;;;;;;5041764;28;19929;-59
2023/09/13 09:05:56;;;;;;;;;;;20.40;59.90;;;;;;5042605;28;20621;-59
2023/09/13 09:08:24;;;;;;;;;;;20.40;60.60;;;;;;5043350;28;19979;-59
2023/09/13 09:10:56;;;;;;;;;;;20.40;60.50;;;;;;5049350;28;20023;-59
2023/09/13 09:13:24;;;;;;;;;;;20.40;60.30;;;;;;5046628;28;19978;-59
2023/09/13 09:15:52;;;;;;;;;;;20.50;59.80;;;;;;5045118;28;19932;-59
2023/09/13 09:18:20;;;;;;;;;;;20.50;59.70;;;;;;5045742;28;19924;-59
2023/09/13 09:20:49;;;;;;;;;;;20.50;60.20;;;;;;5046114;28;20428;-59
2023/09/13 09:23:17;;;;;;;;;;;20.50;59.60;;;;;;5049881;28;19925;-60
2023/09/13 09:25:44;;;;;;;;;;;20.50;59.60;;;;;;5049087;28;20344;-59
2023/09/13 09:28:11;;;;;;;;;;;20.60;59.50;;;;;;5044579;28;20421;-59
2023/09/13 09:30:38;;;;;;;;;;;20.50;60.20;;;;;;5043301;28;19937;-59
2023/09/13 09:33:06;;;;;;;;;;;20.60;60.20;;;;;;5049194;28;19932;-59
2023/09/13 09:35:34;;;;;;;;;;;20.50;60.30;;;;;;5045496;28;20108;-59
2023/09/13 09:38:03;;;;;;;;;;;20.60;60.70;;;;;;5046425;28;19987;-59
2023/09/13 09:40:36;;;;;;;;;;;20.60;60.20;;;;;;5044163;28;19956;-59
2023/09/13 09:43:04;;;;;;;;;;;20.70;60.50;;;;;;5050951;28;20373;-59
2023/09/13 09:45:31;;;;;;;;;;;20.70;59.70;;;;;;5046513;28;19939;-59
2023/09/13 09:47:59;;;;;;;;;;;20.70;60.50;;;;;;5045472;28;19929;-59
2023/09/13 09:50:30;;;;;;;;;;;20.80;60.40;;;;;;5041877;28;20308;-59
2023/09/13 09:52:57;;;;;;;;;;;20.80;60.00;;;;;;5048664;28;20400;-59
2023/09/13 09:55:28;;;;;;;;;;;20.80;60.30;;;;;;5039556;28;19983;-59
2023/09/13 09:57:55;;;;;;;;;;;20.80;60.10;;;;;;5047241;28;19925;-58
2023/09/13 10:00:22;;;;;;;;;;;20.70;59.50;;;;;;5043911;28;20355;-59
2023/09/13 10:02:49;;;;;;;;;;;20.70;59.60;;;;;;5043429;28;20258;-60
2023/09/13 10:05:18;;;;;;;;;;;20.70;59.80;;;;;;5042597;28;19932;-58
2023/09/13 10:07:49;;;;;;;;;;;20.70;59.30;;;;;;5042628;28;19990;-59
2023/09/13 10:10:37;;;;;;;;;;;20.60;59.20;;;;;;5047023;28;19936;-59
2023/09/13 10:13:05;;;;;;;;;;;20.60;59.10;;;;;;5040794;28;20039;-59
2023/09/13 10:15:32;;;;;;;;;;;20.50;59.00;;;;;;5045299;28;20292;-58
2023/09/13 10:18:01;;;;;;;;;;;20.50;59.20;;;;;;5043148;28;20345;-59
2023/09/13 10:20:29;;;;;;;;;;;20.40;59.10;;;;;;5048499;28;20011;-58
2023/09/13 10:22:57;;;;;;;;;;;20.40;58.90;;;;;;5046271;28;20473;-58
2023/09/13 10:25:28;;;;;;;;;;;20.30;58.80;;;;;;5046604;28;19939;-59
2023/09/13 10:27:56;;;;;;;;;;;20.30;58.70;;;;;;5048786;28;20015;-59
2023/09/13 10:30:25;;;;;;;;;;;20.30;59.20;;;;;;5051958;28;20357;-58
2023/09/13 10:32:56;;;;;;;;;;;20.20;59.40;;;;;;5053564;28;20377;-59
2023/09/13 10:35:25;;;;;;;;;;;20.10;59.40;;;;;;5054503;28;19935;-58
2023/09/13 10:37:59;;;;;;;;;;;20.10;59.80;;;;;;5047340;28;19928;-59
2023/09/13 10:40:46;;;;;;;;;;;20.10;59.10;;;;;;5052876;28;19993;-59
2023/09/13 10:43:14;;;;;;;;;;;20.00;59.40;;;;;;5062060;28;20399;-59
2023/09/13 10:45:41;;;;;;;;;;;20.00;59.80;;;;;;5051509;28;20003;-59
2023/09/13 10:48:08;;;;;;;;;;;20.00;59.80;;;;;;5047454;28;20318;-59
2023/09/13 10:50:37;;;;;;;;;;;20.00;60.10;;;;;;5047050;28;19958;-59
2023/09/13 10:53:04;;;;;;;;;;;20.00;60.20;;;;;;5049495;28;19988;-59
2023/09/13 10:55:33;;;;;;;;;;;20.00;60.10;;;;;;5048612;28;20377;-60
2023/09/13 10:58:01;;;;;;;;;;;20.10;60.00;;;;;;5051593;28;20269;-58
2023/09/13 11:00:31;;;;;;;;;;;20.10;60.40;;;;;;5052287;28;19932;-59
2023/09/13 11:02:59;;;;;;;;;;;20.10;60.00;;;;;;5045583;28;20380;-58
2023/09/13 11:05:27;;;;;;;;;;;20.10;60.20;;;;;;5046638;28;19925;-59
2023/09/13 11:07:54;;;;;;;;;;;20.20;59.90;;;;;;5049313;28;19939;-58
2023/09/13 11:10:21;;;;;;;;;;;20.20;60.20;;;;;;5049066;28;20011;-59
2023/09/13 11:12:51;;;;;;;;;;;20.20;59.70;;;;;;5050673;28;19925;-59
2023/09/13 11:15:21;;;;;;;;;;;20.20;60.40;;;;;;5044436;28;20019;-59
2023/09/13 11:17:49;;;;;;;;;;;20.20;60.00;;;;;;5048699;28;20369;-59
2023/09/13 11:20:21;;;;;;;;;;;20.30;60.20;;;;;;5050701;28;20012;-59
2023/09/13 11:23:14;;;;;;;;;;;20.20;60.00;;;;;;5052448;28;19976;-58
2023/09/13 11:26:04;;;;;;;;;;;20.30;60.20;;;;;;5051864;28;19978;-59
2023/09/13 11:28:43;;;;;;;;;;;20.30;60.40;;;;;;5049795;28;20617;-61
2023/09/13 11:31:14;;;;;;;;;;;20.30;60.20;;;;;;5063588;28;20301;-59
2023/09/13 11:33:51;;;;;;;;;;;20.40;60.40;;;;;;5050361;28;19947;-59
2023/09/13 11:36:20;;;;;;;;;;;20.30;59.90;;;;;;5065259;28;19979;-59
2023/09/13 11:38:52;;;;;;;;;;;20.40;60.30;;;;;;5046937;28;20308;-59
2023/09/13 11:41:19;;;;;;;;;;;20.40;59.20;;;;;;5043614;28;19958;-59
2023/09/13 11:43:48;;;;;;;;;;;20.40;58.90;;;;;;5045033;28;19933;-59
2023/09/13 11:46:28;;;;;;;;;;;20.50;58.50;;;;;;5046332;28;19968;-59
2023/09/13 11:48:57;;;;;;;;;;;20.50;59.10;;;;;;5048854;28;19924;-59
2023/09/13 11:51:33;;;;;;;;;;;20.60;59.90;;;;;;5042728;28;19972;-59
2023/09/13 11:54:14;;;;;;;;;;;20.60;59.00;;;;;;5050784;28;19971;-59
2023/09/13 11:56:43;;;;;;;;;;;20.60;58.50;;;;;;5050695;28;19924;-59
2023/09/13 11:59:13;;;;;;;;;;;20.60;58.50;;;;;;5051767;28;19986;-59
2023/09/13 12:01:44;;;;;;;;;;;20.60;58.70;;;;;;5049461;28;19925;-59
2023/09/13 12:04:15;;;;;;;;;;;20.70;59.40;;;;;;5051242;28;19925;-58
2023/09/13 12:06:46;;;;;;;;;;;20.70;59.40;;;;;;5048819;28;19929;-59
2023/09/13 12:09:19;;;;;;;;;;;20.70;59.50;;;;;;5051283;28;19925;-59
2023/09/13 12:11:55;;;;;;;;;;;20.80;60.00;;;;;;5046433;28;19925;-59
2023/09/13 12:14:27;;;;;;;;;;;20.80;59.50;;;;;;5047856;28;19932;-59
2023/09/13 12:17:14;;;;;;;;;;;20.80;59.60;;;;;;5049347;28;19924;-59
2023/09/13 12:19:44;;;;;;;;;;;20.90;59.40;;;;;;5059995;28;19929;-59
2023/09/13 12:22:14;;;;;;;;;;;20.90;59.40;;;;;;5050663;28;20380;-59
2023/09/13 12:24:58;;;;;;;;;;;20.90;59.20;;;;;;5049035;28;19990;-59
2023/09/13 12:27:25;;;;;;;;;;;21.00;59.00;;;;;;5045474;28;20049;-59
2023/09/13 12:29:52;;;;;;;;;;;21.00;59.00;;;;;;5048340;28;20397;-59
2023/09/13 12:32:19;;;;;;;;;;;21.00;58.60;;;;;;5048763;28;19936;-60
2023/09/13 12:34:46;;;;;;;;;;;21.00;58.80;;;;;;5048360;28;19932;-60
2023/09/13 12:37:14;;;;;;;;;;;21.10;58.80;;;;;;5049911;28;19956;-60
2023/09/13 12:39:42;;;;;;;;;;;21.10;58.90;;;;;;5049683;28;20395;-60
2023/09/13 12:42:09;;;;;;;;;;;21.10;58.80;;;;;;5051206;28;20408;-60
2023/09/13 12:44:37;;;;;;;;;;;21.10;58.90;;;;;;5047106;28;19925;-60
2023/09/13 12:47:05;;;;;;;;;;;21.10;58.70;;;;;;5047119;28;19971;-60
2023/09/13 12:49:32;;;;;;;;;;;21.20;58.50;;;;;;5047811;28;20369;-60
2023/09/13 12:51:59;;;;;;;;;;;21.20;59.20;;;;;;5047303;28;19932;-60
2023/09/13 12:54:26;;;;;;;;;;;21.20;59.20;;;;;;5045186;28;19939;-60
2023/09/13 12:56:59;;;;;;;;;;;21.20;58.70;;;;;;5051521;28;19928;-60
2023/09/13 12:59:26;;;;;;;;;;;21.20;58.70;;;;;;5051313;28;20578;-60
2023/09/13 13:01:54;;;;;;;;;;;21.30;58.40;;;;;;5050635;28;19995;-61
2023/09/13 13:04:23;;;;;;;;;;;21.30;58.20;;;;;;5044242;28;19994;-60
2023/09/13 13:06:59;;;;;;;;;;;21.20;58.50;;;;;;5049479;28;19925;-60
2023/09/13 13:09:26;;;;;;;;;;;21.20;58.60;;;;;;5050516;28;19936;-60
2023/09/13 13:11:54;;;;;;;;;;;21.20;58.80;;;;;;5054207;28;20616;-61
2023/09/13 13:14:23;;;;;;;;;;;21.20;58.20;;;;;;5053578;28;19925;-60
2023/09/13 13:16:51;;;;;;;;;;;21.20;59.00;;;;;;5043480;28;19963;-60
2023/09/13 13:19:26;;;;;;;;;;;21.20;58.60;;;;;;5043528;28;20025;-60
2023/09/13 13:21:54;;;;;;;;;;;21.10;58.50;;;;;;5042690;28;20011;-60
2023/09/13 13:24:24;;;;;;;;;;;21.10;58.90;;;;;;5040828;28;19929;-60
2023/09/13 13:26:52;;;;;;;;;;;21.10;59.30;;;;;;5043138;28;19936;-60
2023/09/13 13:29:20;;;;;;;;;;;21.10;58.40;;;;;;5044634;28;19979;-60
2023/09/13 13:31:47;;;;;;;;;;;21.10;58.40;;;;;;5042212;28;19982;-60
2023/09/13 13:34:15;;;;;;;;;;;21.10;58.40;;;;;;5048543;28;20016;-60
2023/09/13 13:36:42;;;;;;;;;;;21.10;58.40;;;;;;5044698;28;19925;-60
2023/09/13 13:39:14;;;;;;;;;;;21.10;58.20;;;;;;5042926;28;20277;-60
2023/09/13 13:41:42;;;;;;;;;;;21.10;58.60;;;;;;5047082;28;19932;-60
2023/09/13 13:44:15;;;;;;;;;;;21.10;58.30;;;;;;5043965;28;20014;-60
2023/09/13 13:46:42;;;;;;;;;;;21.10;58.50;;;;;;5046440;28;19933;-60
2023/09/13 13:49:11;;;;;;;;;;;21.10;58.60;;;;;;5043715;28;19925;-60
2023/09/13 13:51:38;;;;;;;;;;;21.10;58.00;;;;;;5044229;28;20450;-60
2023/09/13 13:54:05;;;;;;;;;;;21.20;58.30;;;;;;5043204;28;19925;-60
2023/09/13 13:56:32;;;;;;;;;;;21.20;58.30;;;;;;5044152;28;19925;-60
2023/09/13 13:58:59;;;;;;;;;;;21.10;57.80;;;;;;5048403;28;20320;-60
2023/09/13 14:01:26;;;;;;;;;;;21.20;59.00;;;;;;5047447;28;19978;-60
2023/09/13 14:03:53;;;;;;;;;;;21.20;57.90;;;;;;5049400;28;19924;-60
2023/09/13 14:06:20;;;;;;;;;;;21.20;63.10;;;;;;5046875;28;19929;-60
2023/09/13 14:08:47;;;;;;;;;;;21.30;68.60;;;;;;5049128;28;19955;-60
2023/09/13 14:11:14;;;;;;;;;;;21.50;71.90;;;;;;5050041;28;19993;-60
2023/09/13 14:13:41;;;;;;;;;;;21.80;73.60;;;;;;5049352;28;19972;-60
2023/09/13 14:16:08;;;;;;;;;;;22.00;74.00;;;;;;5049989;28;19929;-60
2023/09/13 14:18:35;;;;;;;;;;;22.10;74.00;;;;;;5049800;28;20270;-60
2023/09/13 14:21:03;;;;;;;;;;;22.40;74.20;;;;;;5050115;28;19933;-60
2023/09/13 14:23:30;;;;;;;;;;;22.50;73.90;;;;;;5053917;28;20451;-60
2023/09/13 14:25:57;;;;;;;;;;;22.70;74.00;;;;;;5049273;28;19968;-60